createdAt,value
2019-06-07T00:01:03.211Z,9.20
2019-06-07T00:03:33.414Z,8.93
2019-06-07T00:06:07.109Z,8.60
2019-06-07T00:08:37.358Z,8.40
2019-06-07T00:11:10.321Z,9.10
2019-06-07T00:13:43.063Z,8.83
2019-06-07T00:16:22.741Z,8.73
2019-06-07T00:18:52.277Z,8.70
2019-06-07T00:22:12.885Z,8.80
2019-06-07T00:24:02.242Z,8.73
2019-06-07T00:26:32.566Z,9.00
2019-06-07T00:29:13.842Z,9.43
2019-06-07T00:31:42.522Z,8.37
2019-06-07T00:34:14.018Z,9.17
2019-06-07T00:36:51.253Z,8.70
2019-06-07T00:39:26.039Z,8.57
2019-06-07T00:42:00.598Z,8.63
2019-06-07T00:44:34.122Z,8.60
2019-06-07T00:47:05.658Z,8.40
2019-06-07T00:49:41.770Z,8.83
2019-06-07T00:53:05.623Z,8.47
2019-06-07T00:54:50.682Z,8.43
2019-06-07T00:57:26.146Z,8.23
2019-06-07T00:59:58.268Z,8.50
2019-06-07T01:02:31.364Z,8.50
2019-06-07T01:05:04.711Z,8.20
2019-06-07T01:07:42.120Z,8.40
2019-06-07T01:10:16.532Z,8.10
2019-06-07T01:12:52.418Z,8.10
2019-06-07T01:15:29.937Z,8.23
2019-06-07T01:18:33.605Z,8.10
2019-06-07T01:20:32.666Z,7.33
2019-06-07T01:23:51.637Z,7.40
2019-06-07T01:25:42.495Z,7.73
2019-06-07T01:28:16.561Z,7.87
2019-06-07T01:30:49.631Z,7.53
2019-06-07T01:33:39.672Z,7.30
2019-06-07T01:35:57.511Z,8.17
2019-06-07T01:38:30.123Z,7.93
2019-06-07T01:41:00.858Z,7.53
2019-06-07T01:43:34.521Z,7.57
2019-06-07T01:46:05.125Z,7.50
2019-06-07T01:48:49.388Z,7.47
2019-06-07T01:51:18.962Z,7.50
2019-06-07T01:54:47.457Z,8.10
2019-06-07T01:56:31.890Z,8.60
2019-06-07T01:59:06.094Z,8.30
2019-06-07T02:01:39.445Z,8.40
2019-06-07T02:04:16.155Z,8.17
2019-06-07T02:06:48.416Z,7.83
2019-06-07T02:09:23.497Z,8.20
2019-06-07T02:11:54.179Z,7.90
2019-06-07T02:14:29.884Z,8.43
2019-06-07T02:17:01.898Z,8.33
2019-06-07T02:19:36.762Z,8.20
2019-06-07T02:22:07.579Z,8.27
2019-06-07T02:24:38.179Z,8.43
2019-06-07T02:27:08.929Z,9.20
2019-06-07T02:29:39.570Z,8.40
2019-06-07T02:32:09.988Z,8.70
2019-06-07T02:34:40.605Z,8.73
2019-06-07T02:37:16.596Z,8.57
2019-06-07T02:39:50.346Z,8.97
2019-06-07T02:42:30.823Z,8.60
2019-06-07T02:45:05.616Z,8.70
2019-06-07T02:47:38.549Z,8.77
2019-06-07T02:50:20.287Z,8.63
2019-06-07T02:52:51.221Z,8.80
2019-06-07T02:55:24.882Z,8.63
2019-06-07T02:57:56.459Z,8.27
2019-06-07T03:01:07.767Z,8.40
2019-06-07T03:03:28.923Z,8.07
2019-06-07T03:06:01.210Z,8.07
2019-06-07T03:08:36.583Z,8.60
2019-06-07T03:11:14.913Z,7.77
2019-06-07T03:13:49.019Z,8.53
2019-06-07T03:16:28.748Z,7.70
2019-06-07T03:19:11.334Z,8.17
2019-06-07T03:21:43.356Z,7.60
2019-06-07T03:24:21.607Z,8.10
2019-06-07T03:29:28.473Z,7.67
2019-06-07T03:32:01.026Z,7.73
2019-06-07T03:34:38.559Z,7.67
2019-06-07T03:37:04.727Z,7.63
2019-06-07T03:39:39.357Z,7.43
2019-06-07T03:42:08.916Z,7.30
2019-06-07T03:44:42.747Z,7.90
2019-06-07T03:47:15.608Z,7.60
2019-06-07T03:49:46.398Z,7.30
2019-06-07T03:52:19.342Z,8.00
2019-06-07T03:54:54.615Z,7.90
2019-06-07T03:58:27.542Z,7.53
2019-06-07T04:00:10.263Z,7.30
2019-06-07T04:02:42.560Z,7.63
2019-06-07T04:05:15.241Z,7.83
2019-06-07T04:07:51.602Z,7.43
2019-06-07T04:10:44.658Z,7.60
2019-06-07T04:13:01.566Z,7.83
2019-06-07T04:15:34.453Z,8.13
2019-06-07T04:18:09.438Z,7.90
2019-06-07T04:20:41.759Z,7.67
2019-06-07T04:23:27.680Z,8.40
2019-06-07T04:25:45.858Z,7.90
2019-06-07T04:28:18.975Z,8.50
2019-06-07T04:30:50.584Z,8.13
2019-06-07T04:33:21.471Z,8.77
2019-06-07T04:35:57.308Z,8.30
2019-06-07T04:38:39.220Z,7.73
2019-06-07T04:41:08.038Z,8.37
2019-06-07T04:43:42.872Z,7.87
2019-06-07T04:46:16.471Z,8.43
2019-06-07T04:48:50.648Z,8.03
2019-06-07T04:51:24.701Z,8.37
2019-06-07T04:53:55.710Z,8.07
2019-06-07T04:56:26.645Z,8.07
2019-06-07T04:59:01.903Z,8.17
2019-06-07T05:01:34.435Z,7.77
2019-06-07T05:04:07.434Z,8.30
2019-06-07T05:06:42.429Z,8.10
2019-06-07T05:09:16.785Z,8.50
2019-06-07T05:11:50.426Z,8.40
2019-06-07T05:14:22.102Z,8.40
2019-06-07T05:16:53.004Z,8.50
2019-06-07T05:19:25.370Z,8.50
2019-06-07T05:22:04.411Z,8.30
2019-06-07T05:24:31.432Z,8.37
2019-06-07T05:27:05.472Z,8.30
2019-06-07T05:29:41.626Z,8.77
2019-06-07T05:32:21.982Z,8.40
2019-06-07T05:34:57.338Z,8.80
2019-06-07T05:37:33.461Z,8.20
2019-06-07T05:40:06.625Z,9.00
2019-06-07T05:42:41.210Z,8.67
2019-06-07T05:45:18.299Z,9.20
2019-06-07T05:47:54.914Z,8.13
2019-06-07T05:50:39.145Z,8.90
2019-06-07T05:53:00.900Z,8.10
2019-06-07T05:55:32.651Z,8.90
2019-06-07T05:58:07.229Z,8.80
2019-06-07T06:00:41.598Z,9.40
2019-06-07T06:03:15.827Z,8.17
2019-06-07T06:05:54.931Z,9.40
2019-06-07T06:08:27.685Z,9.40
2019-06-07T06:11:02.312Z,9.53
2019-06-07T06:13:34.395Z,9.10
2019-06-07T06:16:08.253Z,8.70
2019-06-07T06:18:45.741Z,8.80
2019-06-07T06:21:19.381Z,8.33
2019-06-07T06:23:50.722Z,8.87
2019-06-07T06:26:20.162Z,9.93
2019-06-07T06:28:54.759Z,8.93
2019-06-07T06:31:26.389Z,8.93
2019-06-07T06:34:01.726Z,9.80
2019-06-07T06:36:32.561Z,9.70
2019-06-07T06:39:04.529Z,9.33
2019-06-07T06:41:46.270Z,8.93
2019-06-07T06:44:07.429Z,9.17
2019-06-07T06:46:44.838Z,8.43
2019-06-07T06:49:13.367Z,9.37
2019-06-07T06:51:47.841Z,9.03
2019-06-07T06:54:39.480Z,9.00
2019-06-07T06:57:17.206Z,8.83
2019-06-07T06:59:39.360Z,8.90
2019-06-07T07:02:03.260Z,8.87
2019-06-07T07:04:35.201Z,9.10
2019-06-07T07:07:05.838Z,8.83
2019-06-07T07:09:37.907Z,9.00
2019-06-07T07:12:12.572Z,8.97
2019-06-07T07:14:43.009Z,8.93
2019-06-07T07:17:14.414Z,8.37
2019-06-07T07:19:48.449Z,8.33
2019-06-07T07:22:20.610Z,8.77
2019-06-07T07:24:53.391Z,8.40
2019-06-07T07:27:24.322Z,7.93
2019-06-07T07:30:34.387Z,8.10
2019-06-07T07:32:28.950Z,7.97
2019-06-07T07:35:00.858Z,7.83
2019-06-07T07:37:31.855Z,8.17
2019-06-07T07:40:54.837Z,8.10
2019-06-07T07:42:34.446Z,8.13
2019-06-07T07:45:11.922Z,7.97
2019-06-07T07:48:05.491Z,7.47
2019-06-07T07:50:16.255Z,8.07
2019-06-07T07:52:49.080Z,8.03
2019-06-07T07:55:22.589Z,7.53
2019-06-07T07:58:01.131Z,7.67
2019-06-07T08:03:04.476Z,7.73
2019-06-07T08:05:43.065Z,7.92
2019-06-07T08:08:08.332Z,7.70
2019-06-07T08:10:39.930Z,7.50
2019-06-07T08:13:27.689Z,7.10
2019-06-07T08:15:43.095Z,7.63
2019-06-07T08:18:13.808Z,7.07
2019-06-07T08:21:04.653Z,6.70
2019-06-07T08:23:16.402Z,6.90
2019-06-07T08:25:46.853Z,7.00
2019-06-07T08:28:21.773Z,6.90
2019-06-07T08:30:58.386Z,7.00
2019-06-07T08:33:26.895Z,7.03
2019-06-07T08:36:10.435Z,7.10
2019-06-07T08:38:46.996Z,6.67
2019-06-07T08:41:12.346Z,6.83
2019-06-07T08:43:44.598Z,6.77
2019-06-07T08:46:15.151Z,7.00
2019-06-07T08:48:45.965Z,6.87
2019-06-07T08:51:16.265Z,6.90
2019-06-07T08:54:02.726Z,6.77
2019-06-07T08:56:25.565Z,6.40
2019-06-07T08:59:03.036Z,6.67
2019-06-07T09:01:31.778Z,7.10
2019-06-07T09:04:09.919Z,6.90
2019-06-07T09:07:02.461Z,6.73
2019-06-07T09:09:12.797Z,6.53
2019-06-07T09:11:44.133Z,6.50
2019-06-07T09:14:15.962Z,6.50
2019-06-07T09:16:49.480Z,6.20
2019-06-07T09:19:19.740Z,6.63
2019-06-07T09:21:50.182Z,6.67
2019-06-07T09:24:20.401Z,6.80
2019-06-07T09:26:51.546Z,6.73
2019-06-07T09:29:22.286Z,6.57
2019-06-07T09:31:53.868Z,6.87
2019-06-07T09:34:26.006Z,6.70
2019-06-07T09:37:02.942Z,7.43
2019-06-07T09:39:30.732Z,9.87
2019-06-07T09:42:09.823Z,10.20
2019-06-07T09:44:35.788Z,12.53
2019-06-07T09:47:22.383Z,14.47
2019-06-07T09:49:43.063Z,14.57
2019-06-07T09:52:14.063Z,15.07
2019-06-07T09:57:18.269Z,14.77
2019-06-07T09:59:50.243Z,13.87
2019-06-07T10:02:22.318Z,14.80
2019-06-07T10:04:54.695Z,13.60
2019-06-07T10:07:31.824Z,13.33
2019-06-07T10:10:12.430Z,14.10
2019-06-07T10:12:35.583Z,14.60
2019-06-07T10:15:10.082Z,16.47
2019-06-07T10:17:41.148Z,16.00
2019-06-07T10:20:12.613Z,15.00
2019-06-07T10:22:43.850Z,15.37
2019-06-07T10:25:17.959Z,14.00
2019-06-07T10:27:51.865Z,14.47
2019-06-07T10:30:24.149Z,12.90
2019-06-07T10:32:55.074Z,12.60
2019-06-07T10:35:28.678Z,11.60
2019-06-07T10:38:00.228Z,11.60
2019-06-07T10:40:31.591Z,11.13
2019-06-07T10:43:05.065Z,10.43
2019-06-07T10:45:36.323Z,9.80
2019-06-07T10:48:07.637Z,9.57
2019-06-07T10:50:38.609Z,9.60
2019-06-07T10:53:12.589Z,9.30
2019-06-07T10:55:43.657Z,8.57
2019-06-07T10:58:14.350Z,8.40
2019-06-07T11:00:45.338Z,8.80
2019-06-07T11:03:17.497Z,8.60
2019-06-07T11:05:48.854Z,8.17
2019-06-07T11:08:19.164Z,8.60
2019-06-07T11:10:51.647Z,8.77
2019-06-07T11:13:22.053Z,8.73
2019-06-07T11:15:54.044Z,8.57
2019-06-07T11:18:24.419Z,8.50
2019-06-07T11:20:55.406Z,8.03
2019-06-07T11:23:27.554Z,7.83
2019-06-07T11:25:58.616Z,7.87
2019-06-07T11:28:31.946Z,7.90
2019-06-07T11:31:02.749Z,7.37
2019-06-07T11:33:34.352Z,8.03
2019-06-07T11:36:06.662Z,7.53
2019-06-07T11:38:38.149Z,7.80
2019-06-07T11:41:11.632Z,7.93
2019-06-07T11:43:42.165Z,7.27
2019-06-07T11:46:18.848Z,7.30
2019-06-07T11:48:53.747Z,7.70
2019-06-07T11:51:28.266Z,7.53
2019-06-07T11:54:02.115Z,7.33
2019-06-07T11:56:35.455Z,7.23
2019-06-07T11:59:11.745Z,7.77
2019-06-07T12:01:42.822Z,6.63
2019-06-07T12:04:14.012Z,6.80
2019-06-07T12:06:45.358Z,6.83
2019-06-07T12:09:16.859Z,6.57
2019-06-07T12:11:48.252Z,6.77
2019-06-07T12:14:19.830Z,6.60
2019-06-07T12:16:50.862Z,6.27
2019-06-07T12:19:21.173Z,6.80
2019-06-07T12:21:52.267Z,6.60
2019-06-07T12:24:25.561Z,6.73
2019-06-07T12:26:56.480Z,6.60
2019-06-07T12:29:28.491Z,6.27
2019-06-07T12:32:02.621Z,6.33
2019-06-07T12:34:32.794Z,6.60
2019-06-07T12:37:04.618Z,6.00
2019-06-07T12:39:38.454Z,6.40
2019-06-07T12:42:12.729Z,6.83
2019-06-07T12:44:44.115Z,6.37
2019-06-07T12:47:16.881Z,6.27
2019-06-07T12:49:47.713Z,6.57
2019-06-07T12:52:25.452Z,6.20
2019-06-07T12:54:56.436Z,6.13
2019-06-07T12:57:31.490Z,5.93
2019-06-07T13:00:02.551Z,6.10
2019-06-07T13:02:37.637Z,6.10
2019-06-07T13:05:10.571Z,5.90
2019-06-07T13:07:42.640Z,6.10
2019-06-07T13:10:20.082Z,5.87
2019-06-07T13:12:52.376Z,5.80
2019-06-07T13:15:25.758Z,5.90
2019-06-07T13:17:55.244Z,5.77
2019-06-07T13:20:26.346Z,5.57
2019-06-07T13:23:01.440Z,5.30
2019-06-07T13:25:45.501Z,5.73
2019-06-07T13:28:04.805Z,6.03
2019-06-07T13:30:36.471Z,5.30
2019-06-07T13:33:07.090Z,5.60
2019-06-07T13:35:38.031Z,5.50
2019-06-07T13:38:13.358Z,5.27
2019-06-07T13:40:44.421Z,5.20
2019-06-07T13:43:14.678Z,5.30
2019-06-07T13:45:46.343Z,5.33
2019-06-07T13:48:17.083Z,5.47
2019-06-07T13:50:52.320Z,5.17
2019-06-07T13:53:22.744Z,4.97
2019-06-07T13:55:53.991Z,5.20
2019-06-07T13:58:30.115Z,5.30
2019-06-07T14:01:00.885Z,5.47
2019-06-07T14:03:35.369Z,5.43
2019-06-07T14:06:06.138Z,5.03
2019-06-07T14:08:37.401Z,5.50
2019-06-07T14:11:08.529Z,5.27
2019-06-07T14:13:41.837Z,5.50
2019-06-07T14:16:12.992Z,5.63
2019-06-07T14:18:44.090Z,5.30
2019-06-07T14:21:15.262Z,5.37
2019-06-07T14:23:51.362Z,5.30
2019-06-07T14:26:21.624Z,5.37
2019-06-07T14:28:53.583Z,5.63
2019-06-07T14:31:30.251Z,5.17
2019-06-07T14:34:08.058Z,5.23
2019-06-07T14:36:38.790Z,4.97
2019-06-07T14:39:09.866Z,5.40
2019-06-07T14:42:09.109Z,5.40
2019-06-07T14:44:55.193Z,5.17
2019-06-07T14:47:41.116Z,5.20
2019-06-07T14:50:24.187Z,5.80
2019-06-07T14:53:05.328Z,5.40
2019-06-07T14:55:46.038Z,5.27
2019-06-07T14:58:23.397Z,5.57
2019-06-07T15:00:54.093Z,5.90
2019-06-07T15:03:26.376Z,5.17
2019-06-07T15:05:57.759Z,5.60
2019-06-07T15:08:33.015Z,5.13
2019-06-07T15:11:04.320Z,5.20
2019-06-07T15:13:37.719Z,5.43
2019-06-07T15:16:16.457Z,5.43
2019-06-07T15:18:54.723Z,5.37
2019-06-07T15:21:48.370Z,5.50
2019-06-07T15:24:37.111Z,5.20
2019-06-07T15:27:25.294Z,5.50
2019-06-07T15:30:16.786Z,5.60
2019-06-07T15:33:05.120Z,5.53
2019-06-07T15:35:37.763Z,5.03
2019-06-07T15:38:15.588Z,5.23
2019-06-07T15:40:46.978Z,5.40
2019-06-07T15:43:20.282Z,5.53
2019-06-07T15:45:51.149Z,5.50
2019-06-07T15:48:24.190Z,5.40
2019-06-07T15:50:55.339Z,5.30
2019-06-07T15:53:26.743Z,5.40
2019-06-07T15:55:57.884Z,5.60
2019-06-07T15:58:28.827Z,5.50
2019-06-07T16:01:02.668Z,5.30
2019-06-07T16:03:35.686Z,5.47
2019-06-07T16:06:06.700Z,5.77
2019-06-07T16:08:38.620Z,5.40
2019-06-07T16:11:09.966Z,5.07
2019-06-07T16:13:43.728Z,5.63
2019-06-07T16:16:14.772Z,5.13
2019-06-07T16:18:47.174Z,5.57
2019-06-07T16:21:18.847Z,5.90
2019-06-07T16:23:52.944Z,5.33
2019-06-07T16:26:25.899Z,5.47
2019-06-07T16:29:00.572Z,5.63
2019-06-07T16:31:30.743Z,5.30
2019-06-07T16:34:03.559Z,5.43
2019-06-07T16:36:36.619Z,5.60
2019-06-07T16:39:09.816Z,5.30
2019-06-07T16:41:44.719Z,6.03
2019-06-07T16:44:16.346Z,5.47
2019-06-07T16:46:48.844Z,5.77
2019-06-07T16:49:20.475Z,5.87
2019-06-07T16:51:51.642Z,6.17
2019-06-07T16:54:24.602Z,6.30
2019-06-07T16:56:56.668Z,6.17
2019-06-07T16:59:28.006Z,6.37
2019-06-07T17:02:00.803Z,6.47
2019-06-07T17:04:31.639Z,6.17
2019-06-07T17:07:08.829Z,6.67
2019-06-07T17:09:45.337Z,6.23
2019-06-07T17:12:15.306Z,6.20
2019-06-07T17:14:49.133Z,6.03
2019-06-07T17:17:23.108Z,6.30
2019-06-07T17:19:53.808Z,6.53
2019-06-07T17:22:25.936Z,6.80
2019-06-07T17:24:58.401Z,6.20
2019-06-07T17:27:31.611Z,6.40
2019-06-07T17:30:01.994Z,6.10
2019-06-07T17:32:48.443Z,6.33
2019-06-07T17:35:10.022Z,6.40
2019-06-07T17:37:43.208Z,6.03
2019-06-07T17:40:13.539Z,6.30
2019-06-07T17:42:47.051Z,6.20
2019-06-07T17:45:18.313Z,6.30
2019-06-07T17:47:55.343Z,6.13
2019-06-07T17:50:27.325Z,6.40
2019-06-07T17:52:58.083Z,6.33
2019-06-07T17:55:30.450Z,6.13
2019-06-07T17:58:01.836Z,6.90
2019-06-07T18:00:48.769Z,6.43
2019-06-07T18:03:20.280Z,6.70
2019-06-07T18:05:56.318Z,6.30
2019-06-07T18:08:28.902Z,7.10
2019-06-07T18:10:59.257Z,6.57
2019-06-07T18:13:30.270Z,6.30
2019-06-07T18:16:04.179Z,6.40
2019-06-07T18:18:38.432Z,6.27
2019-06-07T18:21:10.059Z,6.60
2019-06-07T18:23:43.671Z,6.77
2019-06-07T18:26:18.097Z,6.63
2019-06-07T18:28:49.122Z,6.70
2019-06-07T18:31:22.534Z,7.00
2019-06-07T18:33:55.235Z,6.90
2019-06-07T18:36:46.850Z,6.90
2019-06-07T18:39:21.278Z,6.43
2019-06-07T18:41:53.339Z,9.87
2019-06-07T18:44:29.369Z,10.80
2019-06-07T18:47:09.785Z,11.77
2019-06-07T18:49:43.255Z,10.60
2019-06-07T18:52:31.615Z,10.00
2019-06-07T18:55:02.075Z,9.87
2019-06-07T18:57:35.906Z,9.33
2019-06-07T19:00:08.110Z,16.00
2019-06-07T19:02:45.625Z,13.20
2019-06-07T19:05:18.238Z,15.37
2019-06-07T19:07:50.340Z,12.77
2019-06-07T19:10:23.606Z,12.40
2019-06-07T19:12:55.270Z,10.43
2019-06-07T19:15:30.186Z,9.90
2019-06-07T19:18:01.139Z,10.03
2019-06-07T19:20:32.176Z,9.70
2019-06-07T19:23:07.915Z,10.10
2019-06-07T19:25:39.990Z,9.80
2019-06-07T19:28:12.115Z,9.53
2019-06-07T19:30:42.439Z,9.00
2019-06-07T19:33:13.723Z,9.67
2019-06-07T19:35:44.412Z,9.03
2019-06-07T19:38:17.054Z,9.40
2019-06-07T19:40:47.347Z,9.20
2019-06-07T19:43:18.027Z,9.43
2019-06-07T19:45:52.087Z,9.13
2019-06-07T19:48:24.971Z,9.17
2019-06-07T19:50:55.294Z,9.67
2019-06-07T19:53:29.507Z,9.83
2019-06-07T19:56:01.424Z,10.00
2019-06-07T19:58:33.287Z,10.70
2019-06-07T20:01:05.234Z,10.53
2019-06-07T20:03:42.762Z,10.83
2019-06-07T20:06:17.136Z,10.73
2019-06-07T20:08:51.335Z,10.50
2019-06-07T20:11:22.185Z,9.70
2019-06-07T20:14:03.047Z,10.60
2019-06-07T20:16:34.295Z,10.20
2019-06-07T20:19:09.052Z,10.07
2019-06-07T20:21:40.152Z,9.60
2019-06-07T20:24:24.869Z,9.87
2019-06-07T20:26:42.966Z,10.17
2019-06-07T20:29:25.893Z,9.70
2019-06-07T20:31:49.513Z,9.80
2019-06-07T20:34:20.594Z,10.03
2019-06-07T20:36:50.939Z,9.83
2019-06-07T20:39:28.714Z,10.20
2019-06-07T20:42:01.287Z,9.60
2019-06-07T20:44:32.330Z,9.83
2019-06-07T20:47:08.644Z,9.50
2019-06-07T20:49:43.118Z,10.00
2019-06-07T20:52:13.445Z,9.77
2019-06-07T20:54:44.421Z,10.43
2019-06-07T20:57:16.715Z,10.43
2019-06-07T20:59:48.242Z,11.20
2019-06-07T21:02:22.426Z,10.87
2019-06-07T21:04:58.949Z,11.20
2019-06-07T21:07:30.595Z,11.43
2019-06-07T21:10:08.031Z,11.87
2019-06-07T21:12:43.595Z,11.70
2019-06-07T21:15:19.335Z,11.83
2019-06-07T21:17:51.994Z,11.60
2019-06-07T21:20:25.120Z,11.90
2019-06-07T21:22:56.606Z,11.90
2019-06-07T21:25:30.908Z,11.57
2019-06-07T21:28:05.188Z,12.30
2019-06-07T21:30:37.253Z,12.27
2019-06-07T21:33:13.292Z,12.40
2019-06-07T21:35:43.841Z,12.70
2019-06-07T21:38:18.061Z,12.80
2019-06-07T21:40:48.375Z,12.07
2019-06-07T21:43:20.962Z,12.70
2019-06-07T21:46:04.374Z,13.23
2019-06-07T21:48:32.470Z,12.83
2019-06-07T21:51:02.861Z,13.17
2019-06-07T21:53:39.686Z,13.23
2019-06-07T21:56:11.231Z,12.93
2019-06-07T21:58:45.040Z,13.33
2019-06-07T22:01:24.436Z,12.57
2019-06-07T22:04:00.833Z,13.33
2019-06-07T22:06:32.023Z,13.67
2019-06-07T22:09:07.878Z,13.73
2019-06-07T22:11:38.707Z,12.93
2019-06-07T22:14:12.523Z,13.10
2019-06-07T22:16:46.802Z,12.90
2019-06-07T22:19:24.342Z,13.97
2019-06-07T22:22:02.476Z,14.13
2019-06-07T22:24:32.999Z,13.73
2019-06-07T22:27:05.251Z,14.13
2019-06-07T22:29:35.981Z,13.43
2019-06-07T22:32:06.827Z,13.63
2019-06-07T22:34:37.362Z,13.73
2019-06-07T22:37:11.287Z,13.20
2019-06-07T22:39:48.794Z,13.40
2019-06-07T22:42:23.931Z,13.53
2019-06-07T22:44:55.576Z,13.33
2019-06-07T22:47:27.150Z,14.10
2019-06-07T22:50:02.138Z,14.60
2019-06-07T22:52:33.110Z,13.80
2019-06-07T22:55:03.386Z,13.60
2019-06-07T22:57:54.188Z,13.80
2019-06-07T23:00:25.826Z,13.90
2019-06-07T23:03:00.010Z,13.90
2019-06-07T23:05:31.459Z,14.37
2019-06-07T23:08:08.770Z,13.20
2019-06-07T23:10:41.822Z,13.27
2019-06-07T23:13:17.710Z,13.70
2019-06-07T23:15:52.807Z,13.90
2019-06-07T23:18:23.470Z,14.27
2019-06-07T23:21:16.308Z,13.40
2019-06-07T23:23:46.465Z,14.37
2019-06-07T23:26:18.318Z,14.63
2019-06-07T23:29:00.095Z,13.73
2019-06-07T23:31:36.526Z,14.30
2019-06-07T23:34:10.634Z,14.67
2019-06-07T23:36:41.614Z,14.20
2019-06-07T23:39:13.051Z,13.80
2019-06-07T23:41:46.966Z,13.43
2019-06-07T23:44:17.275Z,14.13
2019-06-07T23:46:49.254Z,13.60
2019-06-07T23:49:22.375Z,13.83
2019-06-07T23:51:58.419Z,14.40
2019-06-07T23:54:38.186Z,13.57
2019-06-07T23:57:12.181Z,14.07
2019-06-07T23:59:44.906Z,14.53
